Cacaulandia, Brazil
Current Conditions -  °F | °C
As of 6:00 AM on Saturday 20 Dec 2014 (Local Time) from SBPV Reporting Station
Scattered Clouds Scattered Clouds  
Wind Chill: 73°   Ceiling: Unl
Heat Index: 73°   Visibility: 5mi
Dew Point: 73°   Wind: 3mph
Humidity: 100%   Direction: 30°NNE
Pressure: 29.77"   Gusts: NA
Location:  10.34°S, 62.9°W
Report Text: SBPV 201000Z 03003KT 8000 SCT006 SCT015 23/23 Q1008
Loading
Personal Weather Stations






























Interactive Weather Map New forecast layout! Learn more

10-Day Weather Forecast

Advertisements
Track Severe Weather on mobile